CheckWX is a tool to help pilots better visualize weather data.  It is not intended as a substitute for an official pre-flight weather briefing.

00:27:37 UTC

WSSS TAF
Singapore Changi International Airport
Singapore, Singapore
TAF WSSS 222300Z 2300/2406 14007KT 9999 FEW015 SCT020 TEMPO 2306/2309 3000 TSRA FEW012CB BKN015

Oct-23@
00:00 UTC

Oct-23 @ 00:00 UTC

Oct-24@
06:00 UTC

Oct-24 @ 06:00 UTC

TAF WSSS 222300Z 2300/2406 14007KT 9999 FEW015 SCT020
Wind
  • 140° at 7 KTS
Cloud Levels
  • Few at 1,500' AGL
  • Scattered at 2,000' AGL

Oct-23@
06:00 UTC

Oct-23 @ 06:00 UTC

Oct-23@
09:00 UTC

Oct-23 @ 09:00 UTC

TEMPO 2306/2309 3000 TSRA FEW012CB BKN015

Temporary

Temporary Changes expected for less than half the time period

Conditions
Thunderstorm, Rain
Cloud Levels
  • Few at 1,200' AGL
  • Broken at 1,500' AGL